createdAt,value
2023-04-16T00:00:33.220Z,14.41
2023-04-16T00:03:00.472Z,14.12
2023-04-16T00:05:28.295Z,14.37
2023-04-16T00:07:55.736Z,14.95
2023-04-16T00:10:23.171Z,21.50
2023-04-16T00:12:50.104Z,14.97
2023-04-16T00:15:17.483Z,14.84
2023-04-16T00:17:45.178Z,14.52
2023-04-16T00:20:12.667Z,14.59
2023-04-16T00:22:39.797Z,14.58
2023-04-16T00:25:07.278Z,14.45
2023-04-16T00:27:34.657Z,14.31
2023-04-16T00:30:01.606Z,14.24
2023-04-16T00:32:29.875Z,14.45
2023-04-16T00:34:56.816Z,14.37
2023-04-16T00:37:24.111Z,14.16
2023-04-16T00:39:51.157Z,14.13
2023-04-16T00:42:18.751Z,14.24
2023-04-16T00:44:46.122Z,14.49
2023-04-16T00:47:13.551Z,14.69
2023-04-16T00:49:41.422Z,14.59
2023-04-16T00:52:08.838Z,14.45
2023-04-16T00:54:36.555Z,14.38
2023-04-16T00:57:03.942Z,14.55
2023-04-16T00:59:31.959Z,14.68
2023-04-16T01:01:59.448Z,14.49
2023-04-16T01:04:26.654Z,14.40
2023-04-16T01:06:54.475Z,14.38
2023-04-16T01:09:21.988Z,14.21
2023-04-16T01:11:49.454Z,14.56
2023-04-16T01:14:16.842Z,14.23
2023-04-16T01:16:44.262Z,14.07
2023-04-16T01:19:11.664Z,14.44
2023-04-16T01:21:39.308Z,14.23
2023-04-16T01:24:06.866Z,14.32
2023-04-16T01:26:34.205Z,14.35
2023-04-16T01:29:02.379Z,14.62
2023-04-16T01:31:29.773Z,14.41
2023-04-16T01:34:20.050Z,14.16
2023-04-16T01:36:47.030Z,14.10
2023-04-16T01:39:16.349Z,13.95
2023-04-16T01:41:43.765Z,14.51
2023-04-16T01:44:11.391Z,14.70
2023-04-16T01:46:38.979Z,14.55
2023-04-16T01:49:07.334Z,14.40
2023-04-16T01:51:34.849Z,14.60
2023-04-16T01:54:01.963Z,14.50
2023-04-16T01:56:29.411Z,14.55
2023-04-16T01:58:56.389Z,14.21
2023-04-16T02:01:25.413Z,14.15
2023-04-16T02:03:53.529Z,14.27
2023-04-16T02:06:21.032Z,14.64
2023-04-16T02:08:48.452Z,14.54
2023-04-16T02:11:16.112Z,14.13
2023-04-16T02:13:43.884Z,14.44
2023-04-16T02:16:11.400Z,14.69
2023-04-16T02:18:46.868Z,14.21
2023-04-16T02:21:15.908Z,14.35
2023-04-16T02:23:47.495Z,14.34
2023-04-16T02:26:14.512Z,14.70
2023-04-16T02:28:41.906Z,14.17
2023-04-16T02:31:11.064Z,14.18
2023-04-16T02:33:43.067Z,14.66
2023-04-16T02:36:11.260Z,14.62
2023-04-16T02:38:38.914Z,14.04
2023-04-16T02:41:07.195Z,14.38
2023-04-16T02:43:34.997Z,14.26
2023-04-16T02:46:02.983Z,14.14
2023-04-16T02:48:30.561Z,14.44
2023-04-16T02:50:57.953Z,14.61
2023-04-16T02:53:25.493Z,14.47
2023-04-16T02:55:56.073Z,14.65
2023-04-16T02:58:25.717Z,14.00
2023-04-16T03:00:54.338Z,14.27
2023-04-16T03:03:21.852Z,14.01
2023-04-16T03:05:49.523Z,14.36
2023-04-16T03:08:16.864Z,14.20
2023-04-16T03:10:43.874Z,14.27
2023-04-16T03:13:11.208Z,14.45
2023-04-16T03:15:38.288Z,14.37
2023-04-16T03:18:05.898Z,14.38
2023-04-16T03:20:33.300Z,14.03
2023-04-16T03:23:00.371Z,14.50
2023-04-16T03:25:28.627Z,14.55
2023-04-16T03:27:56.542Z,14.38
2023-04-16T03:30:24.077Z,14.24
2023-04-16T03:32:51.973Z,14.53
2023-04-16T03:35:19.440Z,14.13
2023-04-16T03:37:46.823Z,14.51
2023-04-16T03:40:14.545Z,14.30
2023-04-16T03:42:42.320Z,14.41
2023-04-16T03:45:09.623Z,14.40
2023-04-16T03:47:37.690Z,17.76
2023-04-16T03:50:05.521Z,16.92
2023-04-16T03:52:32.642Z,16.78
2023-04-16T03:54:59.972Z,16.56
2023-04-16T03:57:30.789Z,16.45
2023-04-16T04:00:04.341Z,16.39
2023-04-16T04:02:41.833Z,16.31
2023-04-16T04:05:16.124Z,16.72
2023-04-16T04:07:44.692Z,16.47
2023-04-16T04:10:12.235Z,16.65
2023-04-16T04:12:42.152Z,16.11
2023-04-16T04:15:09.994Z,16.45
2023-04-16T04:17:37.453Z,16.85
2023-04-16T04:20:04.916Z,16.49
2023-04-16T04:22:32.078Z,15.92
2023-04-16T04:24:59.471Z,16.28
2023-04-16T04:27:29.563Z,16.43
2023-04-16T04:29:57.695Z,16.51
2023-04-16T04:32:25.589Z,16.44
2023-04-16T04:34:52.631Z,15.98
2023-04-16T04:37:21.043Z,15.88
2023-04-16T04:39:48.461Z,16.03
2023-04-16T04:42:18.689Z,16.26
2023-04-16T04:44:46.706Z,15.78
2023-04-16T04:47:14.525Z,16.00
2023-04-16T04:49:41.975Z,15.88
2023-04-16T04:52:09.381Z,16.10
2023-04-16T04:54:36.422Z,15.41
2023-04-16T04:57:03.788Z,15.84
2023-04-16T04:59:30.924Z,15.96
2023-04-16T05:01:57.966Z,15.85
2023-04-16T05:04:24.948Z,15.71
2023-04-16T05:06:52.276Z,15.84
2023-04-16T05:09:19.331Z,15.82
2023-04-16T05:11:46.756Z,16.04
2023-04-16T05:14:14.165Z,15.85
2023-04-16T05:16:41.577Z,15.42
2023-04-16T05:19:09.135Z,15.49
2023-04-16T05:21:36.334Z,15.41
2023-04-16T05:24:03.482Z,15.87
2023-04-16T05:26:30.951Z,15.67
2023-04-16T05:28:58.348Z,15.89
2023-04-16T05:31:25.458Z,15.61
2023-04-16T05:33:52.525Z,15.94
2023-04-16T05:36:19.461Z,15.73
2023-04-16T05:38:46.414Z,15.90
2023-04-16T05:41:13.750Z,16.18
2023-04-16T05:43:40.681Z,15.65
2023-04-16T05:46:08.064Z,15.98
2023-04-16T05:48:35.491Z,15.90
2023-04-16T05:51:02.906Z,15.84
2023-04-16T05:53:29.918Z,15.79
2023-04-16T05:55:57.281Z,15.95
2023-04-16T05:58:24.680Z,15.73
2023-04-16T06:00:52.000Z,15.92
2023-04-16T06:03:19.466Z,15.74
2023-04-16T06:05:46.564Z,15.91
2023-04-16T06:08:13.999Z,15.97
2023-04-16T06:10:41.358Z,16.12
2023-04-16T06:13:08.758Z,15.94
2023-04-16T06:15:35.769Z,15.90
2023-04-16T06:18:05.891Z,15.80
2023-04-16T06:20:33.018Z,15.66
2023-04-16T06:23:00.058Z,16.04
2023-04-16T06:25:27.584Z,15.93
2023-04-16T06:27:54.508Z,15.35
2023-04-16T06:30:21.491Z,15.47
2023-04-16T06:32:49.674Z,15.83
2023-04-16T06:35:16.947Z,14.95
2023-04-16T06:37:44.517Z,15.60
2023-04-16T06:40:12.012Z,15.21
2023-04-16T06:42:39.404Z,15.69
2023-04-16T06:45:07.432Z,15.45
2023-04-16T06:47:34.936Z,15.53
2023-04-16T06:50:01.870Z,15.67
2023-04-16T06:52:29.745Z,15.28
2023-04-16T06:54:57.059Z,15.41
2023-04-16T06:57:26.780Z,15.36
2023-04-16T06:59:54.179Z,15.75
2023-04-16T07:02:21.393Z,15.25
2023-04-16T07:04:48.454Z,14.17
2023-04-16T07:07:15.907Z,15.24
2023-04-16T07:09:43.342Z,15.07
2023-04-16T07:12:11.407Z,15.58
2023-04-16T07:14:38.792Z,15.53
2023-04-16T07:17:06.224Z,15.40
2023-04-16T07:19:33.247Z,15.84
2023-04-16T07:22:01.037Z,15.62
2023-04-16T07:24:28.011Z,15.50
2023-04-16T07:26:55.004Z,15.56
2023-04-16T07:29:21.919Z,15.50
2023-04-16T07:31:50.353Z,15.99
2023-04-16T07:34:17.317Z,15.51
2023-04-16T07:36:44.679Z,15.73
2023-04-16T07:39:12.280Z,14.98
2023-04-16T07:41:40.994Z,15.12
2023-04-16T07:44:08.181Z,15.53
2023-04-16T07:46:43.554Z,15.80
2023-04-16T07:49:14.169Z,15.72
2023-04-16T07:51:41.231Z,15.86
2023-04-16T07:54:08.294Z,15.19
2023-04-16T07:56:35.631Z,15.61
2023-04-16T07:59:08.260Z,15.40
2023-04-16T08:01:46.462Z,15.36
2023-04-16T08:04:14.344Z,15.40
2023-04-16T08:06:42.625Z,15.36
2023-04-16T08:09:11.139Z,15.45
2023-04-16T08:11:43.944Z,15.55
2023-04-16T08:14:13.985Z,15.61
2023-04-16T08:16:45.382Z,15.70
2023-04-16T08:19:12.942Z,15.21
2023-04-16T08:21:42.001Z,14.94
2023-04-16T08:24:12.077Z,15.09
2023-04-16T08:26:41.836Z,15.05
2023-04-16T08:29:09.437Z,15.45
2023-04-16T08:31:37.141Z,15.35
2023-04-16T08:34:04.529Z,15.46
2023-04-16T08:36:31.836Z,15.20
2023-04-16T08:38:58.786Z,15.39
2023-04-16T08:41:30.209Z,15.51
2023-04-16T08:44:02.611Z,15.66
2023-04-16T08:46:31.924Z,15.47
2023-04-16T08:49:00.573Z,15.24
2023-04-16T08:51:34.407Z,15.49
2023-04-16T08:54:09.410Z,15.67
2023-04-16T08:56:37.526Z,15.27
2023-04-16T08:59:07.895Z,15.43
2023-04-16T09:01:39.723Z,15.56
2023-04-16T09:04:08.594Z,15.38
2023-04-16T09:06:37.238Z,15.11
2023-04-16T09:09:06.088Z,15.49
2023-04-16T09:11:36.523Z,15.09
2023-04-16T09:14:06.091Z,15.44
2023-04-16T09:16:34.616Z,15.21
2023-04-16T09:19:02.046Z,15.07
2023-04-16T09:21:33.686Z,15.40
2023-04-16T09:24:02.294Z,15.42
2023-04-16T09:26:32.286Z,15.06
2023-04-16T09:29:02.731Z,15.28
2023-04-16T09:31:29.781Z,15.29
2023-04-16T09:34:09.141Z,15.93
2023-04-16T09:36:37.132Z,15.50
2023-04-16T09:39:04.849Z,14.88
2023-04-16T09:41:37.831Z,14.87
2023-04-16T09:44:05.632Z,14.91
2023-04-16T09:46:41.098Z,15.46
2023-04-16T09:49:15.462Z,15.27
2023-04-16T09:51:44.034Z,15.22
2023-04-16T09:54:11.204Z,15.37
2023-04-16T09:56:48.267Z,15.72
2023-04-16T09:59:23.691Z,15.28
2023-04-16T10:01:53.417Z,14.83
2023-04-16T10:05:00.224Z,15.25
2023-04-16T10:07:34.286Z,15.25
2023-04-16T10:10:01.773Z,15.29
2023-04-16T10:12:30.636Z,14.83
2023-04-16T10:14:57.628Z,14.94
2023-04-16T10:17:25.794Z,14.76
2023-04-16T10:19:54.158Z,15.23
2023-04-16T10:22:21.740Z,15.59
2023-04-16T10:24:53.442Z,15.32
2023-04-16T10:27:21.273Z,15.20
2023-04-16T10:29:49.013Z,15.12
2023-04-16T10:32:17.443Z,15.48
2023-04-16T10:34:44.509Z,15.29
2023-04-16T10:37:12.661Z,15.29
2023-04-16T10:39:39.640Z,15.30
2023-04-16T10:42:13.677Z,15.39
2023-04-16T10:44:43.633Z,15.13
2023-04-16T10:47:13.538Z,15.52
2023-04-16T10:49:42.496Z,15.63
2023-04-16T10:52:20.195Z,15.32
2023-04-16T10:54:52.763Z,15.65
2023-04-16T10:57:20.727Z,15.55
2023-04-16T10:59:49.365Z,15.64
2023-04-16T11:02:19.916Z,15.98
2023-04-16T11:04:49.671Z,15.11
2023-04-16T11:07:22.629Z,15.42
2023-04-16T11:10:05.381Z,15.87
2023-04-16T11:12:46.662Z,15.74
2023-04-16T11:15:16.349Z,15.25
2023-04-16T11:17:48.718Z,15.63
2023-04-16T11:20:22.034Z,15.34
2023-04-16T11:22:58.451Z,15.61
2023-04-16T11:25:30.545Z,15.11
2023-04-16T11:28:01.367Z,15.49
2023-04-16T11:30:31.872Z,15.22
2023-04-16T11:32:59.407Z,15.55
2023-04-16T11:35:27.329Z,15.69
2023-04-16T11:37:58.643Z,15.53
2023-04-16T11:40:29.502Z,15.42
2023-04-16T11:43:00.913Z,15.52
2023-04-16T11:45:28.484Z,15.61
2023-04-16T11:47:57.783Z,15.59
2023-04-16T11:50:29.472Z,15.74
2023-04-16T11:53:04.408Z,15.78
2023-04-16T11:55:31.802Z,15.81
2023-04-16T11:58:12.915Z,15.84
2023-04-16T12:00:41.599Z,15.73
2023-04-16T12:03:08.928Z,15.80
2023-04-16T12:05:38.645Z,15.82
2023-04-16T12:08:08.909Z,15.69
2023-04-16T12:10:55.501Z,15.64
2023-04-16T12:13:23.814Z,15.66
2023-04-16T12:15:57.002Z,15.86
2023-04-16T12:18:28.635Z,16.07
2023-04-16T12:20:55.957Z,15.75
2023-04-16T12:23:34.293Z,16.27
2023-04-16T12:26:10.601Z,16.24
2023-04-16T12:28:40.192Z,16.17
2023-04-16T12:31:07.316Z,15.83
2023-04-16T12:33:34.864Z,16.15
2023-04-16T12:36:03.594Z,15.71
2023-04-16T12:38:30.596Z,15.17
2023-04-16T12:40:58.402Z,15.63
2023-04-16T12:43:25.989Z,15.56
2023-04-16T12:45:53.248Z,15.47
2023-04-16T12:48:20.915Z,15.62
2023-04-16T12:50:48.112Z,15.61
2023-04-16T12:53:15.088Z,15.85
2023-04-16T12:55:42.479Z,15.85
2023-04-16T12:58:11.893Z,15.88
2023-04-16T13:00:40.411Z,15.70
2023-04-16T13:03:07.861Z,16.10
2023-04-16T13:05:35.404Z,15.97
2023-04-16T13:08:02.785Z,16.01
2023-04-16T13:10:30.326Z,16.19
2023-04-16T13:12:57.381Z,15.93
2023-04-16T13:15:24.781Z,15.85
2023-04-16T13:17:52.176Z,15.83
2023-04-16T13:20:19.546Z,15.55
2023-04-16T13:22:46.603Z,15.80
2023-04-16T13:25:13.546Z,16.12
2023-04-16T13:27:40.760Z,15.92
2023-04-16T13:30:08.381Z,16.23
2023-04-16T13:32:38.675Z,16.28
2023-04-16T13:35:06.117Z,16.04
2023-04-16T13:37:33.120Z,15.43
2023-04-16T13:40:00.780Z,15.64
2023-04-16T13:42:28.416Z,15.74
2023-04-16T13:44:55.493Z,15.90
2023-04-16T13:47:22.440Z,15.65
2023-04-16T13:49:49.589Z,15.56
2023-04-16T13:52:16.896Z,15.65
2023-04-16T13:54:43.842Z,15.71
2023-04-16T13:57:19.819Z,15.80
2023-04-16T13:59:47.124Z,16.11
2023-04-16T14:02:14.679Z,15.41
2023-04-16T14:04:41.948Z,15.37
2023-04-16T14:07:09.025Z,15.78
2023-04-16T14:09:36.552Z,15.85
2023-04-16T14:12:03.695Z,16.44
2023-04-16T14:14:30.727Z,15.91
2023-04-16T14:17:03.225Z,16.11
2023-04-16T14:19:30.897Z,15.66
2023-04-16T14:21:58.704Z,16.02
2023-04-16T14:24:25.731Z,15.73
2023-04-16T14:26:53.185Z,15.72
2023-04-16T14:29:20.216Z,15.64
2023-04-16T14:31:47.277Z,15.54
2023-04-16T14:34:14.255Z,15.67
2023-04-16T14:36:41.463Z,15.80
2023-04-16T14:39:09.567Z,15.39
2023-04-16T14:41:36.689Z,16.09
2023-04-16T14:44:06.072Z,16.51
2023-04-16T14:46:33.694Z,16.07
2023-04-16T14:49:01.276Z,15.62
2023-04-16T14:51:28.311Z,15.53
2023-04-16T14:53:56.210Z,15.65
2023-04-16T14:56:23.219Z,16.09
2023-04-16T14:58:50.391Z,15.88
2023-04-16T15:01:17.436Z,15.92
2023-04-16T15:03:44.736Z,15.93
2023-04-16T15:06:11.980Z,15.73
2023-04-16T15:08:39.338Z,15.88
2023-04-16T15:11:06.598Z,16.03
2023-04-16T15:13:34.297Z,15.59
2023-04-16T15:16:01.773Z,16.25
2023-04-16T15:18:29.591Z,16.32
2023-04-16T15:20:56.994Z,16.00
2023-04-16T15:23:24.025Z,16.36
2023-04-16T15:25:51.396Z,16.21
2023-04-16T15:28:18.420Z,16.18
2023-04-16T15:30:45.613Z,15.91
2023-04-16T15:33:13.758Z,15.81
2023-04-16T15:35:41.383Z,15.61
2023-04-16T15:38:08.870Z,15.76
2023-04-16T15:40:37.156Z,15.71
2023-04-16T15:43:04.213Z,15.82
2023-04-16T15:45:31.912Z,15.66
2023-04-16T15:47:58.963Z,15.41
2023-04-16T15:50:26.621Z,15.68
2023-04-16T15:52:53.665Z,16.06
2023-04-16T15:55:21.137Z,15.70
2023-04-16T15:57:48.088Z,15.86
2023-04-16T16:00:17.248Z,16.05
2023-04-16T16:02:46.825Z,16.10
2023-04-16T16:05:15.314Z,16.10
2023-04-16T16:07:43.759Z,16.51
2023-04-16T16:10:15.622Z,16.33
2023-04-16T16:12:42.578Z,16.31
2023-04-16T16:15:11.111Z,16.06
2023-04-16T16:17:39.559Z,16.12
2023-04-16T16:20:10.384Z,16.08
2023-04-16T16:22:38.329Z,16.07
2023-04-16T16:25:10.310Z,16.28
2023-04-16T16:27:37.324Z,16.17
2023-04-16T16:30:07.496Z,16.14
2023-04-16T16:32:35.144Z,15.95
2023-04-16T16:35:02.971Z,15.92
2023-04-16T16:37:30.352Z,16.18
2023-04-16T16:39:57.924Z,16.24
2023-04-16T16:42:24.888Z,16.12
2023-04-16T16:44:53.010Z,16.10
2023-04-16T16:47:22.110Z,15.98
2023-04-16T16:49:49.132Z,15.73
2023-04-16T16:52:16.227Z,15.85
2023-04-16T16:54:43.226Z,16.05
2023-04-16T16:57:10.260Z,15.98
2023-04-16T16:59:37.231Z,16.36
2023-04-16T17:02:04.286Z,16.32
2023-04-16T17:04:31.847Z,16.55
2023-04-16T17:06:59.051Z,16.03
2023-04-16T17:09:26.132Z,16.48
2023-04-16T17:11:53.462Z,16.40
2023-04-16T17:14:20.733Z,16.17
2023-04-16T17:16:49.763Z,16.20
2023-04-16T17:19:17.836Z,16.26
2023-04-16T17:21:44.781Z,16.44
2023-04-16T17:24:12.305Z,16.19
2023-04-16T17:26:40.942Z,15.84
2023-04-16T17:29:07.946Z,16.60
2023-04-16T17:31:35.869Z,16.56
2023-04-16T17:34:08.277Z,16.42
2023-04-16T17:36:35.781Z,16.42
2023-04-16T17:39:03.272Z,16.35
2023-04-16T17:41:30.407Z,16.50
2023-04-16T17:43:57.814Z,16.71
2023-04-16T17:46:24.816Z,16.45
2023-04-16T17:48:51.891Z,16.11
2023-04-16T17:51:18.939Z,16.48
2023-04-16T17:53:45.946Z,16.04
2023-04-16T17:56:14.015Z,16.47
2023-04-16T17:58:41.157Z,16.65
2023-04-16T18:01:08.378Z,16.36
2023-04-16T18:03:37.342Z,16.74
2023-04-16T18:06:04.794Z,16.82
2023-04-16T18:08:32.152Z,16.37
2023-04-16T18:10:59.160Z,16.45
2023-04-16T18:13:26.355Z,16.89
2023-04-16T18:15:53.698Z,16.73
2023-04-16T18:18:21.354Z,16.72
2023-04-16T18:20:48.793Z,16.52
2023-04-16T18:23:15.721Z,16.47
2023-04-16T18:25:43.186Z,16.24
2023-04-16T18:28:13.300Z,16.39
2023-04-16T18:30:41.238Z,16.53
2023-04-16T18:33:38.261Z,16.48
2023-04-16T18:35:55.632Z,16.67
2023-04-16T18:38:22.620Z,16.47
2023-04-16T18:40:49.804Z,16.76
2023-04-16T18:43:17.233Z,16.86
2023-04-16T18:45:44.939Z,16.94
2023-04-16T18:48:12.006Z,16.43
2023-04-16T18:50:39.493Z,16.69
2023-04-16T18:53:07.242Z,16.66
2023-04-16T18:55:34.295Z,16.78
2023-04-16T18:58:01.729Z,17.04
2023-04-16T19:00:28.850Z,16.93
2023-04-16T19:02:56.068Z,16.88
2023-04-16T19:05:23.137Z,16.94
2023-04-16T19:07:50.379Z,17.01
2023-04-16T19:10:17.540Z,16.94
2023-04-16T19:12:44.936Z,17.06
2023-04-16T19:15:12.110Z,16.62
2023-04-16T19:17:39.828Z,16.75
2023-04-16T19:20:11.375Z,17.05
2023-04-16T19:22:38.740Z,16.59
2023-04-16T19:25:09.944Z,16.93
2023-04-16T19:27:37.281Z,16.73
2023-04-16T19:30:06.365Z,16.81
2023-04-16T19:32:34.007Z,16.73
2023-04-16T19:35:01.007Z,16.39
2023-04-16T19:37:28.458Z,16.51
2023-04-16T19:39:56.125Z,16.83
2023-04-16T19:42:23.152Z,16.58
2023-04-16T19:44:50.275Z,16.77
2023-04-16T19:47:17.616Z,16.60
2023-04-16T19:49:44.623Z,16.67
2023-04-16T19:52:12.029Z,16.82
2023-04-16T19:54:40.285Z,16.51
2023-04-16T19:57:07.662Z,16.68
2023-04-16T19:59:34.847Z,16.61
2023-04-16T20:02:02.250Z,16.71
2023-04-16T20:04:29.600Z,16.49
2023-04-16T20:06:57.089Z,16.53
2023-04-16T20:09:25.370Z,16.46
2023-04-16T20:11:52.782Z,16.54
2023-04-16T20:14:19.748Z,16.35
2023-04-16T20:16:46.747Z,16.21
2023-04-16T20:19:17.144Z,16.12
2023-04-16T20:21:45.534Z,15.93
2023-04-16T20:24:12.513Z,15.89
2023-04-16T20:26:39.966Z,16.15
2023-04-16T20:29:07.456Z,16.12
2023-04-16T20:31:34.654Z,16.13
2023-04-16T20:34:02.129Z,16.31
2023-04-16T20:36:29.218Z,16.26
2023-04-16T20:38:56.330Z,16.26
2023-04-16T20:41:25.225Z,16.39
2023-04-16T20:43:52.855Z,16.37
2023-04-16T20:46:24.499Z,16.45
2023-04-16T20:48:52.230Z,16.48
2023-04-16T20:51:19.730Z,16.40
2023-04-16T20:53:47.174Z,16.45
2023-04-16T20:56:15.149Z,16.33
2023-04-16T20:58:43.625Z,16.39
2023-04-16T21:01:11.150Z,16.43
2023-04-16T21:03:38.765Z,16.47
2023-04-16T21:06:06.103Z,16.09
2023-04-16T21:08:33.856Z,16.19
2023-04-16T21:11:01.710Z,16.15
2023-04-16T21:13:29.080Z,16.11
2023-04-16T21:15:56.467Z,16.24
2023-04-16T21:18:24.212Z,16.02
2023-04-16T21:20:51.594Z,16.07
2023-04-16T21:23:18.595Z,16.17
2023-04-16T21:25:46.129Z,16.16
2023-04-16T21:28:13.314Z,15.89
2023-04-16T21:30:41.162Z,15.94
2023-04-16T21:33:08.607Z,15.90
2023-04-16T21:35:36.082Z,15.84
2023-04-16T21:38:03.562Z,16.08
2023-04-16T21:40:30.646Z,15.92
2023-04-16T21:42:58.038Z,16.13
2023-04-16T21:45:25.620Z,16.02
2023-04-16T21:47:52.828Z,15.79
2023-04-16T21:50:20.508Z,15.84
2023-04-16T21:52:48.586Z,15.91
2023-04-16T21:55:15.796Z,15.82
2023-04-16T21:57:43.305Z,15.86
2023-04-16T22:00:14.322Z,15.81
2023-04-16T22:02:42.850Z,16.06
2023-04-16T22:05:11.385Z,15.95
2023-04-16T22:07:39.027Z,15.90
2023-04-16T22:10:08.661Z,16.04
2023-04-16T22:12:39.578Z,15.98
2023-04-16T22:15:08.160Z,15.94
2023-04-16T22:17:35.277Z,15.64
2023-04-16T22:20:06.900Z,15.87
2023-04-16T22:22:34.417Z,16.02
2023-04-16T22:25:02.103Z,15.85
2023-04-16T22:27:29.701Z,15.73
2023-04-16T22:29:57.072Z,15.69
2023-04-16T22:32:24.252Z,15.75
2023-04-16T22:34:52.292Z,15.83
2023-04-16T22:37:19.698Z,15.66
2023-04-16T22:39:46.705Z,15.53
2023-04-16T22:42:14.132Z,15.55
2023-04-16T22:44:41.101Z,15.46
2023-04-16T22:47:08.206Z,15.52
2023-04-16T22:49:35.571Z,15.33
2023-04-16T22:52:03.120Z,15.45
2023-04-16T22:54:31.342Z,15.63
2023-04-16T22:56:58.625Z,15.49
2023-04-16T22:59:26.413Z,15.31
2023-04-16T23:01:53.820Z,15.43
2023-04-16T23:04:21.236Z,15.53
2023-04-16T23:06:48.744Z,15.49
2023-04-16T23:09:15.985Z,15.51
2023-04-16T23:11:43.327Z,15.60
2023-04-16T23:14:10.722Z,15.49
2023-04-16T23:16:38.553Z,15.49
2023-04-16T23:19:06.180Z,15.57
2023-04-16T23:21:33.579Z,15.66
2023-04-16T23:24:00.969Z,15.42
2023-04-16T23:26:28.373Z,15.62
2023-04-16T23:28:57.104Z,15.47
2023-04-16T23:31:24.567Z,15.69
2023-04-16T23:33:52.232Z,15.59
2023-04-16T23:36:19.583Z,15.66
2023-04-16T23:38:46.661Z,15.55
2023-04-16T23:41:14.129Z,15.58
2023-04-16T23:43:41.690Z,15.78
2023-04-16T23:46:09.204Z,15.89
2023-04-16T23:48:36.376Z,15.82
2023-04-16T23:51:04.042Z,15.78
2023-04-16T23:53:31.018Z,15.64
2023-04-16T23:55:58.013Z,15.41
2023-04-16T23:58:25.663Z,15.58
